Time;durP1;ratioP1;P1;durP2;ratioP2;P2;SDS_P1;SDS_P2;PMS_P1;PMS_P2;Temp;Humidity;BMP_temperature;BMP_pressure;BME280_temperature;BME280_humidity;BME280_pressure;Samples;Min_cycle;Max_cycle;Signal;HPM_P1;HPM_P2
2020/12/31 00:01:32;;;;;;;18.48;10.73;;;;;;;2.72;90.17;99034.84;5078054;28;20052;-77
2020/12/31 00:03:58;;;;;;;18.00;11.48;;;;;;;2.71;91.00;99038.41;5077666;28;20422;-76
2020/12/31 00:06:24;;;;;;;15.32;11.10;;;;;;;2.70;91.98;99033.22;5077933;28;20060;-76
2020/12/31 00:08:50;;;;;;;12.68;10.38;;;;;;;2.70;90.49;99038.50;5077295;28;20114;-76
2020/12/31 00:11:16;;;;;;;16.27;10.40;;;;;;;2.67;90.02;99026.31;5077112;28;20053;-76
2020/12/31 00:13:43;;;;;;;14.45;9.82;;;;;;;2.70;90.39;99031.44;5077240;28;20048;-76
2020/12/31 00:16:09;;;;;;;14.75;10.50;;;;;;;2.67;91.48;99030.75;5077329;28;20052;-76
2020/12/31 00:18:36;;;;;;;14.00;10.32;;;;;;;2.60;90.14;99016.16;5059698;28;20143;-76
2020/12/31 00:21:03;;;;;;;17.00;10.25;;;;;;;2.59;90.26;99012.66;5043266;28;20085;-76
2020/12/31 00:23:29;;;;;;;13.60;9.15;;;;;;;2.64;89.79;99015.94;5076732;28;20056;-76
2020/12/31 00:25:55;;;;;;;16.92;10.85;;;;;;;2.74;90.15;99023.38;5057116;28;20449;-76
2020/12/31 00:28:22;;;;;;;12.02;9.18;;;;;;;2.51;90.57;98985.81;5056939;28;20045;-76
2020/12/31 00:30:49;;;;;;;17.23;10.13;;;;;;;2.72;89.87;99012.91;5055821;28;20057;-76
2020/12/31 00:33:20;;;;;;;11.73;9.48;;;;;;;2.69;90.89;99007.81;5056498;28;20434;-76
2020/12/31 00:35:52;;;;;;;20.02;9.93;;;;;;;2.68;90.61;99008.72;5056855;28;20110;-76
2020/12/31 00:38:18;;;;;;;10.68;9.18;;;;;;;2.69;90.27;99007.81;5056511;28;20053;-76
2020/12/31 00:40:44;;;;;;;11.93;9.25;;;;;;;2.61;90.40;98994.16;5056427;28;20464;-75
2020/12/31 00:43:10;;;;;;;10.25;8.63;;;;;;;2.59;90.03;98994.19;5056602;28;20122;-75
2020/12/31 00:45:36;;;;;;;14.45;9.20;;;;;;;2.58;90.55;98981.97;5056357;28;20045;-76
2020/12/31 00:48:03;;;;;;;10.77;8.48;;;;;;;2.65;89.85;98987.78;5056088;28;20095;-76
2020/12/31 00:50:29;;;;;;;11.77;8.73;;;;;;;2.77;89.89;99000.38;5056744;28;20052;-76
2020/12/31 00:52:55;;;;;;;11.07;7.35;;;;;;;2.90;88.63;99005.06;5056090;28;20053;-76
2020/12/31 00:55:21;;;;;;;11.23;8.38;;;;;;;2.82;89.28;99006.28;5038625;28;20382;-75
2020/12/31 00:57:47;;;;;;;12.73;8.57;;;;;;;2.80;89.91;99004.66;5056142;28;20083;-75
2020/12/31 01:00:13;;;;;;;11.65;8.45;;;;;;;2.83;90.26;99005.38;5056197;28;20056;-76
2020/12/31 01:02:40;;;;;;;14.52;7.97;;;;;;;2.85;90.35;99011.41;5056181;28;20056;-76
2020/12/31 01:05:11;;;;;;;11.13;8.43;;;;;;;2.84;89.33;99003.59;5056047;28;20074;-76
2020/12/31 01:07:37;;;;;;;12.00;7.32;;;;;;;2.84;90.08;99001.78;5056297;28;20136;-76
2020/12/31 01:10:08;;;;;;;10.38;7.00;;;;;;;2.83;90.01;98999.25;5038373;28;20053;-76
2020/12/31 01:12:35;;;;;;;11.77;7.93;;;;;;;2.85;89.60;99003.50;5055986;28;20183;-76
2020/12/31 01:15:06;;;;;;;10.00;7.15;;;;;;;2.86;89.52;99009.63;5055765;28;20099;-76
2020/12/31 01:17:32;;;;;;;10.63;7.47;;;;;;;2.91;88.96;99009.41;5056131;28;20045;-75
2020/12/31 01:19:58;;;;;;;11.40;7.45;;;;;;;2.82;89.95;98997.53;5055668;28;20064;-75
2020/12/31 01:22:25;;;;;;;10.45;6.28;;;;;;;2.84;90.00;99006.22;5055710;28;20488;-75
2020/12/31 01:24:52;;;;;;;9.18;6.22;;;;;;;2.89;89.97;99003.38;5055570;28;20072;-76
2020/12/31 01:27:23;;;;;;;8.20;6.40;;;;;;;2.66;90.30;98977.19;5055348;28;20048;-75
2020/12/31 01:29:49;;;;;;;9.13;6.65;;;;;;;2.85;91.22;99005.28;5055405;28;20103;-76
2020/12/31 01:32:15;;;;;;;8.35;6.28;;;;;;;2.83;91.27;99010.63;5055880;28;20053;-76
2020/12/31 01:34:41;;;;;;;9.90;6.20;;;;;;;2.79;90.62;99002.94;5055566;28;20048;-76
2020/12/31 01:37:07;;;;;;;7.75;5.97;;;;;;;2.88;91.24;99006.94;5055345;28;20053;-76
2020/12/31 01:39:33;;;;;;;5.82;5.10;;;;;;;2.86;90.78;99007.00;5055253;28;20422;-76
2020/12/31 01:42:04;;;;;;;7.13;5.03;;;;;;;2.84;90.65;99006.22;5055372;28;20118;-75
2020/12/31 01:44:31;;;;;;;;;;;;;;;2.91;88.89;99006.78;5055959;28;20048;-76
2020/12/31 01:47:00;;;;;;;7.18;4.22;;;;;;;2.72;90.00;98989.19;5037818;28;19924;-76
2020/12/31 01:49:32;;;;;;;7.40;4.25;;;;;;;2.67;90.50;98991.22;5055566;28;20390;-76
2020/12/31 01:52:00;;;;;;;7.80;4.00;;;;;;;2.78;89.60;99004.72;5055342;28;20060;-76
2020/12/31 01:54:26;;;;;;;4.07;2.97;;;;;;;2.75;90.41;99002.25;5055498;28;20068;-76
2020/12/31 01:56:57;;;;;;;5.35;3.03;;;;;;;2.72;91.00;99003.25;5055137;28;20095;-74
2020/12/31 01:59:23;;;;;;;5.57;3.50;;;;;;;2.67;91.87;98999.13;5055105;28;20484;-74
2020/12/31 02:01:50;;;;;;;4.68;3.13;;;;;;;2.67;91.54;99005.22;5055447;28;20060;-74
2020/12/31 02:04:17;;;;;;;4.05;3.05;;;;;;;2.61;92.56;98994.97;5053947;28;20501;-75
2020/12/31 02:06:44;;;;;;;3.40;2.97;;;;;;;2.63;92.48;99001.06;5055129;28;20346;-75
2020/12/31 02:09:11;;;;;;;4.10;3.30;;;;;;;2.61;92.67;98996.78;5055165;28;20049;-75
2020/12/31 02:11:38;;;;;;;3.78;2.95;;;;;;;2.59;92.85;98999.47;5055406;28;20114;-76
2020/12/31 02:14:05;;;;;;;3.05;2.75;;;;;;;2.61;93.05;99002.03;5054928;28;20059;-76
2020/12/31 02:16:37;;;;;;;3.83;3.20;;;;;;;2.56;92.74;98991.72;5054955;28;20049;-75
2020/12/31 02:19:15;;;;;;;3.45;2.65;;;;;;;2.43;92.53;98967.72;5054829;28;20060;-75
2020/12/31 02:21:48;;;;;;;2.90;2.60;;;;;;;2.52;92.63;98984.88;5055123;28;20106;-75
2020/12/31 02:24:15;;;;;;;4.30;3.33;;;;;;;2.53;93.07;98994.50;5053738;28;20068;-75
2020/12/31 02:26:43;;;;;;;3.53;2.88;;;;;;;2.53;93.86;98989.22;5055003;28;20098;-75
2020/12/31 02:29:11;;;;;;;4.15;2.72;;;;;;;2.57;92.83;98986.38;5053818;28;20060;-75
2020/12/31 02:31:38;;;;;;;3.30;2.63;;;;;;;2.58;93.03;98990.69;5054844;28;20049;-75
2020/12/31 02:34:05;;;;;;;2.60;2.40;;;;;;;2.41;93.16;98962.53;5054837;28;20076;-76
2020/12/31 02:36:34;;;;;;;3.85;3.08;;;;;;;2.49;93.59;98982.38;5037168;28;20053;-75
2020/12/31 02:39:08;;;;;;;4.20;2.97;;;;;;;2.42;93.19;98968.66;5055605;28;20459;-76
2020/12/31 02:41:35;;;;;;;3.83;2.72;;;;;;;2.50;94.42;98981.47;5058003;28;20323;-76
2020/12/31 02:44:02;;;;;;;4.57;3.03;;;;;;;2.50;94.38;98979.69;5058867;28;20048;-75
2020/12/31 02:46:28;;;;;;;3.67;3.13;;;;;;;2.49;95.04;98983.25;5058715;28;20385;-74
2020/12/31 02:48:55;;;;;;;3.45;2.88;;;;;;;2.35;94.24;98967.22;5058577;28;20091;-75
2020/12/31 02:51:21;;;;;;;3.63;2.88;;;;;;;2.47;93.96;98982.47;5058648;28;20060;-75
2020/12/31 02:53:47;;;;;;;3.20;2.80;;;;;;;2.45;94.24;98976.41;5059006;28;20044;-76
2020/12/31 02:56:19;;;;;;;3.60;3.28;;;;;;;2.45;94.42;98976.41;5058552;28;20075;-77
2020/12/31 02:58:45;;;;;;;;;;;;;;;2.46;93.41;98969.38;5058804;28;20419;-75
2020/12/31 03:01:12;;;;;;;2.30;2.10;;;;;;;2.49;93.06;98975.34;5058613;28;20265;-75
2020/12/31 03:03:38;;;;;;;2.67;2.13;;;;;;;2.38;93.21;98961.81;5058556;28;20079;-76
2020/12/31 03:06:06;;;;;;;2.55;2.22;;;;;;;2.33;93.27;98963.81;5058561;28;20080;-75
2020/12/31 03:08:33;;;;;;;3.15;2.58;;;;;;;2.31;93.71;98956.81;5058425;28;20473;-76
2020/12/31 03:10:59;;;;;;;2.20;2.00;;;;;;;2.36;94.20;98959.28;5058276;28;20492;-76
2020/12/31 03:13:26;;;;;;;4.97;2.53;;;;;;;2.36;93.45;98958.41;5057333;28;20049;-75
2020/12/31 03:15:53;;;;;;;3.33;2.40;;;;;;;2.31;94.14;98951.56;5058059;28;20057;-75
2020/12/31 03:18:20;;;;;;;2.40;2.20;;;;;;;2.38;93.03;98956.53;5058345;28;20068;-75
2020/12/31 03:20:50;;;;;;;2.50;2.30;;;;;;;2.36;94.37;98948.75;5058180;28;20052;-76
2020/12/31 03:23:16;;;;;;;2.90;2.50;;;;;;;2.38;94.10;98946.00;5058164;28;20053;-75
2020/12/31 03:25:43;;;;;;;4.53;2.60;;;;;;;2.41;93.71;98945.88;5057987;28;20125;-76
2020/12/31 03:28:10;;;;;;;2.83;2.42;;;;;;;2.39;93.85;98943.31;5056912;28;20449;-76
2020/12/31 03:30:37;;;;;;;3.45;2.30;;;;;;;2.39;94.03;98939.84;5057760;28;20060;-76
2020/12/31 03:33:04;;;;;;;3.08;2.70;;;;;;;2.29;94.17;98937.63;5058114;28;20052;-76
2020/12/31 03:35:32;;;;;;;4.93;2.72;;;;;;;2.25;95.15;98930.81;5056585;28;20053;-75
2020/12/31 03:37:59;;;;;;;3.20;2.90;;;;;;;2.31;95.79;98933.13;5057836;28;20381;-76
2020/12/31 03:40:25;;;;;;;2.83;2.60;;;;;;;2.30;94.53;98934.06;5057538;28;20052;-76
2020/12/31 03:42:51;;;;;;;3.10;2.75;;;;;;;2.30;94.93;98923.53;5057592;28;20056;-75
2020/12/31 03:45:17;;;;;;;3.03;2.53;;;;;;;2.31;94.02;98930.50;5057880;28;20053;-75
2020/12/31 03:47:43;;;;;;;2.90;2.50;;;;;;;2.22;94.07;98927.47;5057851;28;20060;-75
2020/12/31 03:50:09;;;;;;;3.13;2.50;;;;;;;2.22;95.60;98920.41;5057597;28;20061;-75
2020/12/31 03:52:35;;;;;;;2.95;2.45;;;;;;;2.27;94.32;98923.69;5056927;28;20427;-76
2020/12/31 03:55:02;;;;;;;2.20;2.00;;;;;;;2.22;94.06;98922.19;5057533;28;20516;-75
2020/12/31 03:57:28;;;;;;;2.20;1.80;;;;;;;2.15;94.12;98919.00;5057179;28;20393;-76
2020/12/31 03:59:54;;;;;;;2.22;1.95;;;;;;;2.17;93.97;98906.59;5057314;28;20107;-75
2020/12/31 04:02:20;;;;;;;3.03;1.83;;;;;;;2.19;94.46;98911.78;5057093;28;20331;-75
2020/12/31 04:04:47;;;;;;;2.78;1.95;;;;;;;2.20;94.87;98905.59;5057426;28;20091;-76
2020/12/31 04:07:13;;;;;;;2.85;2.15;;;;;;;2.18;95.17;98908.28;5057010;28;20449;-76
2020/12/31 04:09:39;;;;;;;2.20;1.95;;;;;;;2.20;94.74;98898.56;5057217;28;20417;-75
2020/12/31 04:12:05;;;;;;;2.42;1.98;;;;;;;2.17;95.76;98885.53;5056962;28;20095;-76
2020/12/31 04:14:31;;;;;;;2.45;2.22;;;;;;;2.20;95.05;98895.06;5057278;28;20057;-76
2020/12/31 04:16:58;;;;;;;2.33;1.83;;;;;;;2.27;94.41;98889.47;5056793;28;20386;-75
2020/12/31 04:19:24;;;;;;;2.03;1.60;;;;;;;2.26;95.01;98898.28;5056879;28;20127;-76
2020/12/31 04:21:52;;;;;;;2.25;1.70;;;;;;;2.22;94.37;98883.53;5056868;28;20141;-76
2020/12/31 04:24:18;;;;;;;1.63;1.52;;;;;;;2.14;94.24;98883.91;5056812;28;20061;-76
2020/12/31 04:26:49;;;;;;;1.77;1.67;;;;;;;2.17;94.88;98872.38;5056864;28;20052;-75
2020/12/31 04:29:16;;;;;;;2.30;1.90;;;;;;;2.23;94.12;98876.53;5056722;28;20374;-76
2020/12/31 04:31:42;;;;;;;2.05;1.85;;;;;;;2.25;94.41;98867.63;5056834;28;20150;-75
2020/12/31 04:34:09;;;;;;;2.40;1.50;;;;;;;2.27;93.96;98876.28;5056765;28;20098;-75
2020/12/31 04:36:35;;;;;;;2.45;1.80;;;;;;;2.26;94.27;98868.47;5056556;28;20098;-75
2020/12/31 04:39:02;;;;;;;2.83;1.65;;;;;;;2.20;94.12;98859.09;5056519;28;20053;-75
2020/12/31 04:41:28;;;;;;;4.10;1.85;;;;;;;2.21;94.07;98871.31;5056763;28;20067;-75
2020/12/31 04:44:02;;;;;;;2.00;1.80;;;;;;;2.08;93.90;98847.38;5056709;28;20103;-75
2020/12/31 04:46:30;;;;;;;1.70;1.58;;;;;;;2.24;93.89;98852.72;5056403;28;20430;-75
2020/12/31 04:49:07;;;;;;;2.17;1.83;;;;;;;2.28;93.75;98848.16;5056194;28;20053;-76
2020/12/31 04:51:36;;;;;;;2.25;1.80;;;;;;;2.18;93.99;98850.38;5056153;28;20049;-75
2020/12/31 04:54:07;;;;;;;1.52;1.40;;;;;;;2.22;94.09;98841.44;5056522;28;20226;-75
2020/12/31 04:56:37;;;;;;;1.63;1.52;;;;;;;2.22;94.20;98851.13;5056298;28;20053;-75
2020/12/31 04:59:07;;;;;;;;;;;;;;;2.31;93.87;98848.88;5056801;28;20041;-75
2020/12/31 05:01:36;;;;;;;1.65;1.50;;;;;;;2.20;94.54;98837.16;5056203;28;20360;-75
2020/12/31 05:04:02;;;;;;;2.13;1.70;;;;;;;2.26;94.12;98848.25;5055037;28;20057;-75
2020/12/31 05:06:35;;;;;;;3.08;2.00;;;;;;;2.30;93.96;98860.34;5056050;28;20049;-75
2020/12/31 05:09:18;;;;;;;1.63;1.50;;;;;;;2.30;93.36;98847.16;5038707;28;20052;-75
2020/12/31 05:11:48;;;;;;;1.95;1.55;;;;;;;2.31;93.49;98846.25;5056255;28;20056;-75
2020/12/31 05:14:26;;;;;;;2.67;1.63;;;;;;;2.27;93.31;98843.84;5056129;28;20090;-75
2020/12/31 05:16:53;;;;;;;1.38;1.27;;;;;;;2.24;92.87;98831.66;5038376;28;20060;-75
2020/12/31 05:19:23;;;;;;;2.20;1.80;;;;;;;2.26;93.25;98837.72;5055813;28;20130;-75
2020/12/31 05:22:11;;;;;;;1.73;1.40;;;;;;;2.28;93.33;98845.53;5056214;28;20341;-76
2020/12/31 05:24:39;;;;;;;2.95;1.38;;;;;;;2.22;93.66;98841.44;5056104;28;20469;-76
2020/12/31 05:27:15;;;;;;;2.17;1.85;;;;;;;2.24;94.43;98838.72;5039701;28;20422;-76
2020/12/31 05:29:53;;;;;;;1.90;1.40;;;;;;;2.18;93.75;98826.69;5057273;28;20061;-75
2020/12/31 05:32:21;;;;;;;1.50;1.40;;;;;;;2.24;94.03;98833.47;5055675;28;20126;-75
2020/12/31 05:34:48;;;;;;;2.50;1.40;;;;;;;2.22;94.20;98833.53;5055953;28;20056;-76
2020/12/31 05:37:16;;;;;;;1.48;1.30;;;;;;;2.33;93.11;98840.91;5054755;28;20045;-76
2020/12/31 05:39:59;;;;;;;1.83;1.50;;;;;;;2.37;93.18;98833.72;5055752;28;20049;-76
2020/12/31 05:42:27;;;;;;;1.92;1.20;;;;;;;2.29;93.75;98818.31;5055765;28;20049;-75
2020/12/31 05:45:10;;;;;;;3.83;1.40;;;;;;;2.36;93.23;98832.88;5055323;28;20083;-75
2020/12/31 05:47:44;;;;;;;1.48;1.38;;;;;;;2.33;93.16;98829.53;5055184;28;20052;-75
2020/12/31 05:50:19;;;;;;;1.20;1.10;;;;;;;2.33;92.96;98822.47;5055235;28;20690;-75
2020/12/31 05:52:47;;;;;;;1.55;1.10;;;;;;;2.36;92.72;98829.38;5055325;28;20110;-76
2020/12/31 05:55:16;;;;;;;3.50;1.30;;;;;;;2.30;93.39;98833.16;5055494;28;20064;-76
2020/12/31 05:57:55;;;;;;;1.80;1.33;;;;;;;2.27;93.87;98818.38;5055141;28;20453;-76
2020/12/31 06:00:26;;;;;;;1.73;1.33;;;;;;;2.25;94.61;98817.59;5055151;28;20057;-75
2020/12/31 06:02:59;;;;;;;;;;;;;;;2.27;94.40;98820.13;5037870;28;20500;-75
2020/12/31 06:05:27;;;;;;;1.70;1.60;;;;;;;2.22;94.05;98817.72;5055098;28;19921;-76
2020/12/31 06:07:55;;;;;;;2.17;1.95;;;;;;;2.23;94.71;98827.34;5055040;28;20056;-75
2020/12/31 06:10:31;;;;;;;4.38;2.20;;;;;;;2.15;94.93;98811.94;5055297;28;20346;-76
2020/12/31 06:13:00;;;;;;;2.80;2.50;;;;;;;2.30;94.34;98822.63;5054831;28;20052;-76
2020/12/31 06:15:32;;;;;;;2.53;2.33;;;;;;;2.22;94.13;98819.53;5054908;28;20045;-76
2020/12/31 06:18:03;;;;;;;2.85;2.55;;;;;;;2.26;94.24;98826.34;5055009;28;20063;-76
2020/12/31 06:20:33;;;;;;;5.93;2.60;;;;;;;2.20;94.62;98808.19;5037312;28;20060;-76
2020/12/31 06:23:00;;;;;;;3.15;2.17;;;;;;;2.27;94.76;98826.28;5054799;28;20127;-76
2020/12/31 06:25:37;;;;;;;2.30;2.10;;;;;;;2.28;94.33;98832.38;5054758;28;20056;-76
2020/12/31 06:28:23;;;;;;;2.22;1.88;;;;;;;2.27;94.19;98838.56;5054901;28;20053;-76
2020/12/31 06:30:54;;;;;;;1.67;1.58;;;;;;;2.29;94.38;98827.03;5055154;28;20074;-76
2020/12/31 06:33:26;;;;;;;2.70;1.80;;;;;;;2.31;94.57;98825.19;5055038;28;20056;-76
2020/12/31 06:36:00;;;;;;;4.38;1.88;;;;;;;2.30;94.09;98807.69;5054692;28;20615;-76
2020/12/31 06:38:36;;;;;;;3.30;1.83;;;;;;;2.34;93.56;98821.53;5053623;28;20678;-76
2020/12/31 06:41:04;;;;;;;3.08;1.73;;;;;;;2.27;93.99;98818.38;5054660;28;20087;-76
2020/12/31 06:43:31;;;;;;;4.30;1.90;;;;;;;2.27;94.10;98821.00;5054587;28;20069;-75
2020/12/31 06:45:58;;;;;;;2.75;1.85;;;;;;;2.36;93.80;98821.47;5054694;28;20355;-76
2020/12/31 06:48:27;;;;;;;2.95;1.60;;;;;;;2.37;94.12;98817.91;5037121;28;20052;-75
2020/12/31 06:51:02;;;;;;;3.25;1.50;;;;;;;2.21;94.17;98810.78;5054606;28;20053;-75
2020/12/31 06:53:44;;;;;;;1.63;1.52;;;;;;;2.24;94.44;98801.88;5054851;28;20053;-75
2020/12/31 06:56:15;;;;;;;2.35;1.38;;;;;;;2.36;94.62;98818.84;5054872;28;20072;-75
2020/12/31 06:58:44;;;;;;;1.23;1.13;;;;;;;2.36;94.49;98824.09;5053623;28;20099;-75
2020/12/31 07:01:22;;;;;;;1.80;1.20;;;;;;;2.29;94.36;98816.50;5054719;28;20132;-75
2020/12/31 07:03:49;;;;;;;2.35;1.40;;;;;;;2.38;94.19;98822.25;5054342;28;20095;-75
2020/12/31 07:06:21;;;;;;;1.35;1.25;;;;;;;2.37;94.29;98817.91;5037043;28;20124;-76
2020/12/31 07:08:53;;;;;;;2.15;1.50;;;;;;;2.41;94.30;98822.94;5054045;28;20041;-76
2020/12/31 07:11:39;;;;;;;1.90;1.70;;;;;;;2.43;93.84;98834.28;5054308;28;20099;-76
2020/12/31 07:14:17;;;;;;;1.73;1.58;;;;;;;2.45;93.62;98834.19;5054328;28;20056;-76
2020/12/31 07:16:55;;;;;;;4.05;1.50;;;;;;;2.44;93.68;98825.44;5054386;28;20057;-76
2020/12/31 07:19:44;;;;;;;2.45;1.70;;;;;;;2.45;93.94;98828.91;5036461;28;20065;-76
2020/12/31 07:22:10;;;;;;;4.40;1.80;;;;;;;2.45;93.92;98821.00;5054358;28;20053;-76
2020/12/31 07:24:46;;;;;;;2.10;1.58;;;;;;;2.43;93.68;98822.88;5054275;28;20059;-76
2020/12/31 07:27:30;;;;;;;1.70;1.42;;;;;;;2.37;94.03;98826.69;5056748;28;20110;-76
2020/12/31 07:29:57;;;;;;;2.40;2.00;;;;;;;2.41;94.70;98822.94;5056983;28;20067;-76
2020/12/31 07:32:55;;;;;;;3.42;1.65;;;;;;;2.39;94.37;98829.25;5058072;28;20053;-75
2020/12/31 07:35:49;;;;;;;5.82;2.03;;;;;;;2.44;94.76;98835.13;5057777;28;20045;-75
2020/12/31 07:38:17;;;;;;;2.83;1.80;;;;;;;2.47;94.32;98834.97;5057697;28;20045;-76
2020/12/31 07:41:01;;;;;;;1.83;1.50;;;;;;;2.46;93.96;98841.19;5057683;28;20102;-75
2020/12/31 07:43:28;;;;;;;5.55;2.22;;;;;;;2.45;94.04;98831.56;5057673;28;20052;-75
2020/12/31 07:46:00;;;;;;;3.03;1.80;;;;;;;2.47;93.71;98834.97;5039865;28;20376;-76
2020/12/31 07:48:27;;;;;;;2.67;2.22;;;;;;;2.46;94.49;98830.66;5057389;28;20409;-75
2020/12/31 07:50:58;;;;;;;3.65;2.08;;;;;;;2.40;94.55;98826.50;5057224;28;20057;-75
2020/12/31 07:53:25;;;;;;;3.25;2.35;;;;;;;2.46;94.61;98825.38;5057795;28;20107;-75
2020/12/31 07:55:54;;;;;;;4.25;3.30;;;;;;;2.46;94.70;98835.91;5040146;28;20049;-76
2020/12/31 07:58:22;;;;;;;3.95;3.10;;;;;;;2.48;95.00;98831.41;5057387;28;20120;-76
2020/12/31 08:01:05;;;;;;;2.63;2.25;;;;;;;2.43;95.14;98829.00;5057398;28;20049;-75
2020/12/31 08:03:32;;;;;;;3.25;2.33;;;;;;;2.47;95.06;98832.34;5057538;28;20059;-75
2020/12/31 08:06:00;;;;;;;5.25;2.40;;;;;;;2.49;94.53;98838.38;5057561;28;20343;-77
2020/12/31 08:08:27;;;;;;;4.15;2.65;;;;;;;2.51;94.22;98835.69;5057500;28;20049;-77
2020/12/31 08:10:53;;;;;;;3.50;2.72;;;;;;;2.55;94.35;98832.81;5057141;28;20139;-75
2020/12/31 08:13:20;;;;;;;4.75;2.60;;;;;;;2.54;94.43;98831.13;5057381;28;20076;-77
2020/12/31 08:15:50;;;;;;;4.05;2.42;;;;;;;2.55;94.69;98837.22;5057469;28;20053;-74
2020/12/31 08:18:17;;;;;;;9.02;2.65;;;;;;;2.54;94.95;98839.03;5057222;28;20041;-79
2020/12/31 08:20:45;;;;;;;2.78;2.33;;;;;;;2.56;94.47;98839.78;5056705;28;20443;-75
2020/12/31 08:23:16;;;;;;;5.88;2.35;;;;;;;2.57;94.58;98838.84;5056737;28;20052;-72
2020/12/31 08:25:45;;;;;;;2.53;2.33;;;;;;;2.47;94.13;98824.44;5057036;28;20057;-78
2020/12/31 08:28:17;;;;;;;4.50;2.22;;;;;;;2.60;93.92;98844.91;5056385;28;20132;-80
2020/12/31 08:30:44;;;;;;;4.47;1.95;;;;;;;2.60;93.23;98840.50;5057493;28;20445;-78
2020/12/31 08:33:11;;;;;;;8.13;1.90;;;;;;;2.63;93.43;98850.03;5055920;28;20075;-76
2020/12/31 08:35:38;;;;;;;3.90;1.80;;;;;;;2.58;93.32;98837.91;5064420;28;20049;-73
2020/12/31 08:38:12;;;;;;;5.20;1.90;;;;;;;2.64;92.96;98847.31;5038985;28;20045;-74
2020/12/31 08:40:45;;;;;;;8.93;2.30;;;;;;;2.67;92.59;98838.41;5053447;28;20072;-75
2020/12/31 08:43:39;;;;;;;3.08;2.10;;;;;;;2.69;93.14;98839.19;5056054;28;20438;-76
2020/12/31 08:46:16;;;;;;;2.90;1.80;;;;;;;2.70;92.76;98838.25;5059993;28;20049;-77
2020/12/31 08:48:43;;;;;;;2.00;1.50;;;;;;;2.69;92.42;98837.41;5056090;28;20049;-76
2020/12/31 08:51:11;;;;;;;2.30;1.77;;;;;;;2.64;91.80;98826.25;5055720;28;20051;-76
2020/12/31 08:54:01;;;;;;;2.10;1.42;;;;;;;2.65;92.25;98849.03;5049522;28;20064;-77
2020/12/31 08:56:32;;;;;;;1.75;1.58;;;;;;;2.65;92.21;98849.03;5056135;28;20079;-79
2020/12/31 08:59:08;;;;;;;2.47;1.60;;;;;;;2.64;92.55;98838.56;5053383;28;20342;-76
2020/12/31 09:01:34;;;;;;;1.85;1.50;;;;;;;2.74;92.36;98849.47;5055824;28;20053;-78
2020/12/31 09:04:18;;;;;;;1.92;1.55;;;;;;;2.71;91.87;98851.34;5056363;28;20106;-76
2020/12/31 09:06:46;;;;;;;3.67;1.88;;;;;;;2.58;92.83;98832.66;5054208;28;20072;-76
2020/12/31 09:09:26;;;;;;;4.55;1.80;;;;;;;2.52;92.99;98825.09;5058513;28;20045;-76
2020/12/31 09:12:00;;;;;;;3.25;1.70;;;;;;;2.67;92.41;98851.59;5070221;28;20075;-76
2020/12/31 09:14:28;;;;;;;8.77;1.48;;;;;;;2.68;92.58;98842.75;5053885;28;20102;-77
2020/12/31 09:16:55;;;;;;;3.20;1.60;;;;;;;2.68;92.55;98837.47;5055487;28;20052;-78
2020/12/31 09:19:23;;;;;;;2.55;1.60;;;;;;;2.77;91.34;98847.56;5037421;28;20052;-77
2020/12/31 09:21:50;;;;;;;3.90;1.70;;;;;;;2.70;92.62;98846.16;5044330;28;20111;-81
2020/12/31 09:24:21;;;;;;;5.60;1.67;;;;;;;2.50;91.81;98813.75;5022173;28;20071;-78
2020/12/31 09:26:57;;;;;;;4.35;1.40;;;;;;;2.68;91.90;98848.03;5036904;28;20049;-78
2020/12/31 09:29:29;;;;;;;2.95;1.80;;;;;;;2.65;91.78;98848.16;5053821;28;20124;-78
2020/12/31 09:31:56;;;;;;;4.50;1.58;;;;;;;2.48;92.99;98828.78;5054617;28;20055;-77
2020/12/31 09:34:22;;;;;;;5.80;1.90;;;;;;;2.69;93.17;98850.59;5053886;28;20095;-77
2020/12/31 09:36:49;;;;;;;2.55;1.55;;;;;;;2.68;91.27;98842.75;5037315;28;20052;-76
2020/12/31 09:39:16;;;;;;;2.00;1.52;;;;;;;2.72;92.06;98847.78;5053828;28;20584;-76
2020/12/31 09:41:42;;;;;;;5.82;1.42;;;;;;;2.62;91.30;98853.59;5051563;28;20106;-76
2020/12/31 09:44:08;;;;;;;3.50;1.80;;;;;;;2.64;92.72;98857.00;5052474;28;20382;-76
2020/12/31 09:46:34;;;;;;;4.53;1.55;;;;;;;2.69;93.12;98861.13;5035032;28;20049;-76
2020/12/31 09:49:00;;;;;;;5.82;1.80;;;;;;;2.75;93.08;98857.31;5049796;28;20128;-76
2020/12/31 09:51:27;;;;;;;4.25;1.88;;;;;;;2.81;93.19;98854.38;5053212;28;20049;-76
2020/12/31 09:53:53;;;;;;;1.88;1.65;;;;;;;2.87;92.28;98853.22;5053580;28;20120;-76
2020/12/31 09:56:19;;;;;;;2.22;1.63;;;;;;;2.74;92.62;98841.59;5036861;28;20057;-76
2020/12/31 09:58:46;;;;;;;2.25;1.77;;;;;;;2.77;92.99;98847.56;5054884;28;20053;-77
2020/12/31 10:01:15;;;;;;;6.05;2.00;;;;;;;2.77;93.03;98847.56;5054597;28;20050;-76
2020/12/31 10:03:41;;;;;;;3.67;1.63;;;;;;;2.82;92.82;98848.19;5054518;28;20457;-76
2020/12/31 10:06:08;;;;;;;2.15;1.80;;;;;;;2.74;92.02;98850.34;5054472;28;20478;-77
2020/12/31 10:08:34;;;;;;;3.58;1.90;;;;;;;2.76;92.67;98855.53;5054282;28;20036;-76
2020/12/31 10:11:01;;;;;;;1.83;1.65;;;;;;;2.70;92.11;98843.53;5037208;28;20048;-76
2020/12/31 10:13:28;;;;;;;2.00;1.80;;;;;;;2.79;92.39;98847.47;5054658;28;20049;-76
2020/12/31 10:15:54;;;;;;;2.00;1.60;;;;;;;2.78;92.53;98843.16;5054555;28;20048;-76
2020/12/31 10:18:20;;;;;;;3.05;1.50;;;;;;;2.78;92.06;98843.16;5054380;28;20041;-76
2020/12/31 10:20:46;;;;;;;2.50;2.30;;;;;;;2.83;92.25;98852.50;5053965;28;20060;-76
2020/12/31 10:23:12;;;;;;;3.90;2.00;;;;;;;2.85;93.23;98852.44;5054427;28;20056;-76
2020/12/31 10:25:38;;;;;;;3.58;2.00;;;;;;;2.75;92.47;98846.78;5054215;28;20466;-76
2020/12/31 10:28:05;;;;;;;2.90;1.80;;;;;;;2.81;93.14;98848.25;5053215;28;20045;-76
2020/12/31 10:30:31;;;;;;;5.22;1.50;;;;;;;2.86;92.98;98854.16;5054466;28;20049;-77
2020/12/31 10:32:57;;;;;;;1.30;1.20;;;;;;;2.90;91.45;98847.81;5054550;28;20049;-77
2020/12/31 10:35:24;;;;;;;2.95;1.45;;;;;;;2.87;91.19;98839.19;5054383;28;20049;-76
2020/12/31 10:37:50;;;;;;;3.58;1.40;;;;;;;2.97;92.02;98845.69;5053371;28;20094;-76
2020/12/31 10:40:16;;;;;;;1.33;1.20;;;;;;;3.07;89.43;98833.75;5054164;28;20346;-77
2020/12/31 10:42:42;;;;;;;1.10;1.00;;;;;;;2.90;89.59;98844.31;5054060;28;20049;-76
2020/12/31 10:45:08;;;;;;;0.95;0.85;;;;;;;2.90;90.53;98839.91;5053143;28;20049;-76
2020/12/31 10:47:34;;;;;;;3.33;1.42;;;;;;;2.91;90.90;98833.69;5053857;28;20045;-76
2020/12/31 10:50:02;;;;;;;2.75;1.67;;;;;;;2.92;91.66;98842.44;5053865;28;20084;-76
2020/12/31 10:52:28;;;;;;;5.13;1.30;;;;;;;2.96;91.44;98828.19;5054153;28;20099;-76
2020/12/31 10:54:54;;;;;;;4.35;1.58;;;;;;;3.03;91.46;98837.47;5054158;28;20057;-76
2020/12/31 10:57:21;;;;;;;1.48;1.38;;;;;;;2.92;90.94;98816.94;5035122;28;20423;-77
2020/12/31 10:59:47;;;;;;;1.58;1.35;;;;;;;3.05;90.21;98830.34;5057545;28;20323;-76
2020/12/31 11:02:13;;;;;;;1.95;1.67;;;;;;;3.08;91.82;98829.31;5061641;28;20212;-75
2020/12/31 11:04:39;;;;;;;2.08;1.67;;;;;;;2.93;91.28;98823.06;5059733;28;20401;-77
2020/12/31 11:07:05;;;;;;;4.38;1.63;;;;;;;3.00;91.23;98821.84;5060000;28;20053;-78
2020/12/31 11:09:34;;;;;;;2.28;1.50;;;;;;;2.87;89.50;98811.03;5069203;28;20056;-77
2020/12/31 11:12:00;;;;;;;3.03;1.70;;;;;;;2.97;91.38;98821.97;5077004;28;20106;-75
2020/12/31 11:14:26;;;;;;;3.33;1.48;;;;;;;2.93;91.36;98826.56;5077126;28;20094;-75
2020/12/31 11:16:53;;;;;;;2.17;1.70;;;;;;;2.87;90.07;98820.75;5078298;28;20101;-76
2020/12/31 11:19:20;;;;;;;2.47;1.50;;;;;;;2.87;90.74;98815.47;5069051;28;20048;-77
2020/12/31 11:21:49;;;;;;;2.83;1.52;;;;;;;2.93;90.97;98820.41;5069533;28;20053;-77
2020/12/31 11:24:16;;;;;;;2.60;1.60;;;;;;;2.94;90.82;98824.78;5058106;28;20049;-76
2020/12/31 11:26:42;;;;;;;5.13;1.52;;;;;;;2.94;90.43;98822.16;5058104;28;20086;-75
2020/12/31 11:29:08;;;;;;;4.55;1.67;;;;;;;2.95;90.93;98816.78;5066481;28;20052;-76
2020/12/31 11:31:35;;;;;;;2.08;1.55;;;;;;;2.94;90.21;98819.50;5077831;28;20408;-77
2020/12/31 11:34:01;;;;;;;2.67;1.50;;;;;;;2.89;89.67;98810.97;5077650;28;20059;-76
2020/12/31 11:36:28;;;;;;;3.38;1.73;;;;;;;2.96;91.27;98815.84;5077644;28;20057;-77
2020/12/31 11:38:55;;;;;;;4.30;1.80;;;;;;;2.99;91.66;98814.84;5074252;28;20057;-75
2020/12/31 11:41:22;;;;;;;2.53;1.50;;;;;;;3.04;89.63;98822.53;5068253;28;20142;-75
2020/12/31 11:43:49;;;;;;;3.67;2.25;;;;;;;2.76;91.13;98787.00;5036218;28;20114;-75
2020/12/31 11:46:16;;;;;;;2.40;1.80;;;;;;;2.92;91.39;98811.66;5037263;28;20510;-74
2020/12/31 11:48:42;;;;;;;3.20;1.75;;;;;;;2.92;91.54;98814.31;5037579;28;20060;-74
2020/12/31 11:51:10;;;;;;;2.25;1.80;;;;;;;3.01;92.69;98810.34;5067954;28;20114;-74